createdAt,value
2018-07-01T00:01:33.044Z,13.10
2018-07-01T00:04:02.064Z,13.10
2018-07-01T00:06:30.853Z,13.00
2018-07-01T00:08:59.442Z,13.00
2018-07-01T00:11:29.400Z,13.00
2018-07-01T00:13:58.009Z,13.00
2018-07-01T00:16:27.032Z,13.00
2018-07-01T00:18:55.800Z,13.00
2018-07-01T00:21:24.303Z,13.00
2018-07-01T00:23:53.112Z,12.90
2018-07-01T00:26:21.825Z,12.90
2018-07-01T00:28:50.553Z,12.80
2018-07-01T00:31:19.283Z,12.80
2018-07-01T00:33:47.827Z,12.80
2018-07-01T00:36:16.385Z,12.80
2018-07-01T00:38:44.934Z,12.80
2018-07-01T00:41:13.522Z,12.80
2018-07-01T00:43:42.208Z,12.80
2018-07-01T00:46:10.974Z,12.80
2018-07-01T00:48:39.478Z,12.70
2018-07-01T00:51:08.224Z,12.70
2018-07-01T00:53:36.789Z,12.70
2018-07-01T00:56:05.530Z,12.60
2018-07-01T00:58:34.299Z,12.50
2018-07-01T01:01:02.844Z,12.50
2018-07-01T01:03:31.487Z,12.50
2018-07-01T01:06:00.151Z,12.40
2018-07-01T01:08:28.683Z,12.50
2018-07-01T01:10:57.196Z,12.50
2018-07-01T01:13:25.765Z,12.50
2018-07-01T01:15:54.495Z,12.50
2018-07-01T01:18:23.375Z,12.60
2018-07-01T01:20:51.912Z,12.50
2018-07-01T01:25:49.056Z,12.50
2018-07-01T01:28:17.731Z,12.50
2018-07-01T01:30:46.337Z,12.50
2018-07-01T01:33:14.947Z,12.50
2018-07-01T01:35:43.539Z,12.50
2018-07-01T01:38:12.516Z,12.50
2018-07-01T01:40:45.953Z,12.40
2018-07-01T01:43:19.319Z,12.40
2018-07-01T01:45:55.623Z,12.40
2018-07-01T01:48:29.497Z,12.30
2018-07-01T01:51:03.544Z,12.30
2018-07-01T01:53:37.622Z,12.40
2018-07-01T01:56:17.515Z,12.30
2018-07-01T01:58:51.152Z,12.40
2018-07-01T02:01:25.445Z,12.30
2018-07-01T02:04:57.076Z,12.30
2018-07-01T02:07:32.025Z,12.20
2018-07-01T02:10:00.791Z,12.20
2018-07-01T02:12:29.515Z,12.10
2018-07-01T02:15:01.055Z,12.00
2018-07-01T02:17:48.531Z,12.00
2018-07-01T02:20:19.291Z,12.00
2018-07-01T02:22:52.407Z,11.90
2018-07-01T02:25:23.600Z,11.90
2018-07-01T02:27:52.235Z,11.80
2018-07-01T02:30:20.870Z,11.70
2018-07-01T02:32:49.778Z,11.60
2018-07-01T02:35:18.460Z,11.60
2018-07-01T02:37:46.997Z,11.50
2018-07-01T02:40:15.603Z,11.40
2018-07-01T02:42:44.141Z,11.30
2018-07-01T02:45:12.750Z,11.20
2018-07-01T02:47:41.324Z,11.20
2018-07-01T02:50:09.857Z,11.20
2018-07-01T02:52:38.622Z,11.10
2018-07-01T02:55:07.398Z,11.10
2018-07-01T03:00:04.857Z,11.10
2018-07-01T03:02:33.417Z,11.10
2018-07-01T03:05:02.355Z,11.10
2018-07-01T03:07:31.136Z,11.00
2018-07-01T03:09:59.859Z,11.10
2018-07-01T03:12:28.497Z,10.90
2018-07-01T03:14:57.024Z,10.80
2018-07-01T03:17:25.663Z,10.80
2018-07-01T03:19:54.215Z,10.80
2018-07-01T03:22:22.842Z,10.80
2018-07-01T03:24:51.407Z,10.80
2018-07-01T03:27:20.272Z,10.80
2018-07-01T03:29:48.973Z,10.80
2018-07-01T03:32:17.582Z,10.80
2018-07-01T03:34:46.126Z,10.80
2018-07-01T03:37:14.638Z,10.90
2018-07-01T03:39:43.201Z,10.90
2018-07-01T03:42:11.977Z,11.00
2018-07-01T03:44:41.547Z,11.00
2018-07-01T03:47:10.226Z,10.90
2018-07-01T03:49:38.873Z,10.90
2018-07-01T03:52:07.442Z,10.80
2018-07-01T03:54:35.968Z,10.70
2018-07-01T03:57:04.661Z,10.80
2018-07-01T03:59:33.256Z,10.90
2018-07-01T04:02:01.818Z,10.90
2018-07-01T04:04:30.336Z,11.10
2018-07-01T04:06:58.897Z,11.10
2018-07-01T04:09:31.739Z,11.20
2018-07-01T04:12:00.658Z,11.30
2018-07-01T04:14:29.292Z,11.40
2018-07-01T04:16:58.167Z,11.30
2018-07-01T04:19:31.944Z,11.40
2018-07-01T04:22:00.470Z,11.30
2018-07-01T04:24:29.079Z,11.30
2018-07-01T04:26:57.621Z,11.30
2018-07-01T04:29:26.172Z,11.30
2018-07-01T04:31:54.790Z,11.20
2018-07-01T04:34:23.392Z,11.20
2018-07-01T04:36:51.930Z,11.20
2018-07-01T04:39:20.565Z,11.20
2018-07-01T04:41:49.570Z,11.20
2018-07-01T04:44:18.568Z,11.20
2018-07-01T04:46:47.339Z,11.20
2018-07-01T04:49:16.296Z,11.10
2018-07-01T04:51:44.872Z,11.10
2018-07-01T04:54:13.755Z,11.00
2018-07-01T04:56:42.359Z,11.10
2018-07-01T04:59:11.352Z,11.00
2018-07-01T05:01:40.053Z,11.00
2018-07-01T05:04:08.967Z,11.00
2018-07-01T05:06:37.591Z,11.00
2018-07-01T05:09:09.974Z,11.10
2018-07-01T05:11:39.240Z,11.20
2018-07-01T05:14:07.827Z,11.40
2018-07-01T05:16:37.499Z,11.50
2018-07-01T05:19:06.490Z,11.60
2018-07-01T05:21:35.614Z,11.60
2018-07-01T05:24:04.482Z,11.60
2018-07-01T05:26:33.083Z,11.60
2018-07-01T05:29:01.612Z,11.60
2018-07-01T05:31:30.355Z,11.60
2018-07-01T05:33:59.209Z,11.60
2018-07-01T05:36:27.844Z,11.60
2018-07-01T05:38:56.413Z,11.60
2018-07-01T05:41:25.112Z,11.60
2018-07-01T05:43:53.744Z,11.50
2018-07-01T05:46:22.313Z,11.40
2018-07-01T05:48:50.908Z,11.50
2018-07-01T05:51:19.512Z,11.40
2018-07-01T05:53:48.251Z,11.40
2018-07-01T05:56:16.932Z,11.60
2018-07-01T05:58:45.762Z,11.60
2018-07-01T06:01:14.544Z,11.90
2018-07-01T06:03:43.303Z,12.10
2018-07-01T06:06:11.964Z,12.60
2018-07-01T06:08:40.687Z,13.00
2018-07-01T06:11:09.450Z,13.50
2018-07-01T06:13:38.509Z,13.70
2018-07-01T06:16:07.511Z,13.80
2018-07-01T06:18:36.349Z,13.90
2018-07-01T06:21:05.311Z,14.00
2018-07-01T06:23:34.047Z,14.10
2018-07-01T06:26:02.756Z,14.00
2018-07-01T06:28:31.520Z,14.20
2018-07-01T06:31:00.469Z,14.30
2018-07-01T06:33:29.002Z,14.40
2018-07-01T06:35:57.590Z,14.50
2018-07-01T06:38:26.241Z,14.80
2018-07-01T06:40:54.970Z,15.20
2018-07-01T06:43:23.667Z,15.40
2018-07-01T06:45:52.672Z,15.70
2018-07-01T06:48:21.828Z,16.00
2018-07-01T06:50:50.401Z,15.90
2018-07-01T06:53:19.034Z,15.80
2018-07-01T06:55:47.804Z,16.30
2018-07-01T06:58:16.534Z,16.60
2018-07-01T07:00:45.064Z,16.40
2018-07-01T07:03:13.662Z,16.50
2018-07-01T07:05:42.560Z,16.40
2018-07-01T07:08:11.155Z,16.60
2018-07-01T07:10:40.413Z,16.60
2018-07-01T07:13:09.363Z,16.50
2018-07-01T07:15:37.939Z,16.30
2018-07-01T07:18:06.688Z,16.50
2018-07-01T07:20:35.477Z,16.90
2018-07-01T07:23:04.109Z,17.00
2018-07-01T07:25:32.710Z,17.00
2018-07-01T07:28:01.367Z,17.10
2018-07-01T07:30:29.943Z,17.40
2018-07-01T07:32:58.844Z,17.40
2018-07-01T07:35:28.554Z,17.10
2018-07-01T07:40:26.675Z,17.20
2018-07-01T07:42:56.539Z,17.30
2018-07-01T07:45:25.675Z,17.20
2018-07-01T07:47:54.579Z,17.30
2018-07-01T07:50:24.262Z,17.20
2018-07-01T07:55:33.487Z,17.20
2018-07-01T07:58:05.251Z,17.00
2018-07-01T08:00:34.070Z,16.90
2018-07-01T08:03:02.864Z,16.90
2018-07-01T08:05:31.476Z,16.70
2018-07-01T08:08:00.124Z,16.70
2018-07-01T08:10:29.150Z,16.60
2018-07-01T08:12:57.841Z,16.70
2018-07-01T08:15:26.704Z,16.80
2018-07-01T08:17:55.538Z,16.80
2018-07-01T08:20:24.214Z,17.00
2018-07-01T08:22:53.094Z,17.10
2018-07-01T08:25:21.676Z,17.30
2018-07-01T08:27:50.580Z,17.50
2018-07-01T08:30:19.357Z,17.60
2018-07-01T08:32:48.063Z,17.60
2018-07-01T08:35:16.780Z,17.40
2018-07-01T08:37:45.517Z,17.60
2018-07-01T08:40:14.142Z,17.70
2018-07-01T08:42:42.806Z,17.60
2018-07-01T08:45:11.701Z,17.70
2018-07-01T08:47:40.262Z,17.90
2018-07-01T08:50:09.193Z,18.10
2018-07-01T08:52:38.116Z,18.10
2018-07-01T08:55:07.493Z,18.30
2018-07-01T08:57:36.199Z,18.40
2018-07-01T09:00:06.516Z,18.50
2018-07-01T09:02:35.548Z,18.80
2018-07-01T09:05:04.892Z,19.00
2018-07-01T09:07:33.824Z,19.40
2018-07-01T09:10:02.855Z,19.60
2018-07-01T09:12:31.584Z,19.60
2018-07-01T09:15:00.763Z,19.60
2018-07-01T09:17:29.355Z,20.00
2018-07-01T09:19:57.899Z,19.90
2018-07-01T09:22:26.452Z,20.10
2018-07-01T09:24:55.064Z,20.20
2018-07-01T09:27:23.911Z,20.00
2018-07-01T09:29:57.800Z,19.80
2018-07-01T09:32:26.415Z,19.50
2018-07-01T09:34:55.427Z,19.50
2018-07-01T09:37:24.015Z,19.60
2018-07-01T09:39:54.122Z,19.80
2018-07-01T09:42:22.762Z,19.80
2018-07-01T09:44:52.438Z,19.80
2018-07-01T09:47:21.307Z,20.00
2018-07-01T09:49:49.973Z,20.10
2018-07-01T09:52:19.716Z,19.90
2018-07-01T09:54:48.368Z,20.00
2018-07-01T09:57:17.026Z,19.90
2018-07-01T09:59:45.739Z,19.90
2018-07-01T10:02:14.346Z,19.70
2018-07-01T10:04:43.466Z,19.60
2018-07-01T10:07:12.097Z,19.50
2018-07-01T10:09:40.686Z,19.00
2018-07-01T10:12:09.430Z,18.40
2018-07-01T10:14:38.182Z,17.90
2018-07-01T10:17:06.887Z,17.50
2018-07-01T10:19:35.763Z,17.10
2018-07-01T10:22:04.628Z,16.90
2018-07-01T10:24:33.501Z,16.60
2018-07-01T10:27:02.336Z,16.50
2018-07-01T10:29:31.214Z,16.60
2018-07-01T10:32:00.004Z,16.50
2018-07-01T10:34:28.792Z,16.60
2018-07-01T10:36:57.375Z,16.60
2018-07-01T10:39:26.303Z,16.70
2018-07-01T10:41:55.054Z,16.70
2018-07-01T10:44:23.793Z,16.90
2018-07-01T10:46:52.720Z,17.00
2018-07-01T10:49:21.262Z,17.10
2018-07-01T10:51:49.918Z,17.30
2018-07-01T10:54:18.517Z,17.30
2018-07-01T10:56:47.265Z,17.60
2018-07-01T10:59:15.797Z,17.80
2018-07-01T11:01:44.467Z,18.10
2018-07-01T11:04:13.229Z,18.30
2018-07-01T11:06:43.637Z,18.50
2018-07-01T11:09:13.166Z,18.90
2018-07-01T11:11:41.949Z,19.10
2018-07-01T11:14:10.748Z,19.30
2018-07-01T11:16:39.360Z,19.50
2018-07-01T11:19:07.995Z,19.60
2018-07-01T11:21:36.860Z,19.80
2018-07-01T11:24:05.631Z,19.90
2018-07-01T11:26:34.279Z,19.90
2018-07-01T11:29:02.991Z,20.40
2018-07-01T11:31:31.615Z,20.60
2018-07-01T11:34:00.549Z,20.60
2018-07-01T11:36:29.339Z,20.60
2018-07-01T11:38:58.035Z,20.70
2018-07-01T11:41:26.746Z,21.00
2018-07-01T11:46:24.274Z,20.80
2018-07-01T11:48:52.883Z,20.60
2018-07-01T11:51:21.526Z,20.80
2018-07-01T11:53:50.320Z,20.50
2018-07-01T11:56:18.921Z,20.70
2018-07-01T11:58:47.564Z,20.60
2018-07-01T12:01:16.243Z,20.60
2018-07-01T12:03:44.784Z,20.50
2018-07-01T12:06:13.640Z,20.40
2018-07-01T12:08:42.217Z,20.20
2018-07-01T12:11:11.113Z,20.60
2018-07-01T12:13:39.650Z,20.70
2018-07-01T12:16:08.291Z,20.70
2018-07-01T12:18:36.882Z,20.80
2018-07-01T12:21:05.545Z,20.90
2018-07-01T12:23:34.111Z,20.80
2018-07-01T12:26:02.871Z,20.80
2018-07-01T12:28:31.398Z,21.10
2018-07-01T12:30:59.977Z,21.50
2018-07-01T12:33:28.530Z,21.60
2018-07-01T12:35:57.095Z,21.50
2018-07-01T12:38:25.832Z,21.10
2018-07-01T12:40:54.381Z,20.80
2018-07-01T12:43:22.924Z,20.40
2018-07-01T12:45:51.550Z,20.00
2018-07-01T12:48:20.270Z,19.60
2018-07-01T12:50:48.958Z,19.70
2018-07-01T12:53:17.527Z,19.60
2018-07-01T12:55:46.429Z,19.60
2018-07-01T12:58:15.160Z,19.70
2018-07-01T13:00:43.708Z,19.70
2018-07-01T13:03:12.259Z,19.50
2018-07-01T13:05:41.176Z,19.40
2018-07-01T13:08:10.006Z,19.40
2018-07-01T13:10:38.670Z,19.40
2018-07-01T13:13:07.607Z,19.30
2018-07-01T13:15:36.187Z,19.10
2018-07-01T13:18:05.140Z,19.10
2018-07-01T13:20:33.827Z,19.00
2018-07-01T13:23:02.404Z,19.10
2018-07-01T13:25:31.082Z,19.10
2018-07-01T13:27:59.860Z,19.00
2018-07-01T13:30:28.365Z,19.00
2018-07-01T13:32:56.903Z,19.20
2018-07-01T13:35:25.584Z,19.30
2018-07-01T13:37:54.580Z,19.50
2018-07-01T13:40:23.219Z,19.60
2018-07-01T13:42:51.831Z,19.60
2018-07-01T13:45:20.356Z,19.70
2018-07-01T13:47:48.929Z,19.70
2018-07-01T13:50:17.508Z,19.90
2018-07-01T13:52:46.124Z,20.00
2018-07-01T13:55:14.675Z,19.90
2018-07-01T13:57:43.258Z,20.00
2018-07-01T14:00:12.050Z,20.10
2018-07-01T14:02:40.777Z,20.10
2018-07-01T14:05:09.696Z,20.00
2018-07-01T14:07:38.373Z,19.80
2018-07-01T14:10:07.204Z,19.80
2018-07-01T14:12:36.118Z,19.70
2018-07-01T14:15:05.011Z,19.40
2018-07-01T14:17:33.639Z,18.80
2018-07-01T14:20:02.394Z,18.50
2018-07-01T14:22:31.037Z,18.30
2018-07-01T14:24:59.629Z,18.10
2018-07-01T14:27:28.217Z,17.90
2018-07-01T14:29:56.843Z,17.90
2018-07-01T14:32:25.575Z,17.80
2018-07-01T14:34:54.109Z,17.50
2018-07-01T14:37:22.740Z,17.40
2018-07-01T14:39:51.354Z,17.30
2018-07-01T14:42:19.863Z,17.20
2018-07-01T14:44:48.532Z,17.20
2018-07-01T14:47:17.080Z,17.30
2018-07-01T14:49:45.590Z,17.40
2018-07-01T14:52:14.148Z,17.50
2018-07-01T14:54:42.733Z,17.60
2018-07-01T14:57:11.369Z,17.70
2018-07-01T14:59:40.098Z,17.70
2018-07-01T15:02:08.631Z,17.90
2018-07-01T15:04:37.325Z,17.90
2018-07-01T15:07:06.957Z,18.00
2018-07-01T15:09:35.675Z,18.00
2018-07-01T15:12:04.460Z,18.20
2018-07-01T15:14:33.138Z,18.30
2018-07-01T15:17:01.949Z,18.30
2018-07-01T15:19:31.727Z,18.40
2018-07-01T15:22:00.386Z,18.50
2018-07-01T15:24:29.207Z,18.50
2018-07-01T15:26:59.122Z,18.40
2018-07-01T15:29:27.775Z,18.30
2018-07-01T15:31:56.590Z,18.20
2018-07-01T15:34:25.378Z,18.30
2018-07-01T15:36:54.298Z,18.30
2018-07-01T15:39:23.164Z,18.30
2018-07-01T15:41:51.705Z,18.40
2018-07-01T15:44:20.470Z,18.30
2018-07-01T15:46:49.394Z,18.40
2018-07-01T15:49:17.974Z,18.50
2018-07-01T15:51:46.620Z,18.60
2018-07-01T15:54:15.394Z,18.70
2018-07-01T15:56:43.988Z,18.50
2018-07-01T15:59:12.951Z,18.50
2018-07-01T16:01:41.559Z,18.40
2018-07-01T16:04:10.404Z,18.30
2018-07-01T16:06:39.235Z,18.20
2018-07-01T16:09:10.223Z,18.20
2018-07-01T16:14:08.157Z,18.10
2018-07-01T16:16:36.860Z,18.10
2018-07-01T16:19:05.903Z,18.10
2018-07-01T16:21:34.867Z,18.10
2018-07-01T16:24:03.570Z,18.10
2018-07-01T16:26:37.382Z,18.10
2018-07-01T16:29:06.126Z,18.10
2018-07-01T16:31:34.915Z,18.00
2018-07-01T16:34:03.478Z,17.90
2018-07-01T16:36:32.245Z,17.80
2018-07-01T16:39:00.883Z,17.80
2018-07-01T16:43:58.276Z,17.80
2018-07-01T16:46:26.882Z,17.80
2018-07-01T16:48:55.638Z,17.80
2018-07-01T16:51:24.421Z,17.80
2018-07-01T16:53:53.452Z,17.80
2018-07-01T16:58:50.976Z,17.90
2018-07-01T17:01:19.820Z,17.90
2018-07-01T17:03:49.167Z,17.90
2018-07-01T17:06:17.816Z,17.80
2018-07-01T17:08:46.746Z,17.80
2018-07-01T17:11:15.564Z,17.80
2018-07-01T17:13:44.337Z,17.90
2018-07-01T17:16:13.162Z,17.90
2018-07-01T17:18:41.767Z,17.80
2018-07-01T17:21:10.313Z,17.80
2018-07-01T17:23:39.552Z,17.70
2018-07-01T17:26:08.315Z,17.70
2018-07-01T17:28:36.853Z,17.60
2018-07-01T17:31:11.199Z,17.50
2018-07-01T17:33:39.717Z,17.30
2018-07-01T17:36:08.264Z,17.30
2018-07-01T17:38:36.867Z,17.20
2018-07-01T17:41:05.419Z,17.20
2018-07-01T17:43:34.010Z,17.20
2018-07-01T17:46:03.663Z,17.20
2018-07-01T17:48:32.274Z,17.10
2018-07-01T17:51:00.812Z,17.00
2018-07-01T17:53:40.722Z,17.00
2018-07-01T17:56:09.182Z,17.00
2018-07-01T17:58:38.374Z,16.90
2018-07-01T18:03:35.270Z,16.80
2018-07-01T18:06:04.273Z,16.80
2018-07-01T18:08:32.807Z,16.80
2018-07-01T18:11:01.554Z,16.70
2018-07-01T18:13:30.158Z,16.70
2018-07-01T18:15:58.667Z,16.70
2018-07-01T18:18:27.529Z,16.60
2018-07-01T18:20:56.123Z,16.60
2018-07-01T18:23:53.695Z,16.60
2018-07-01T18:25:53.574Z,16.60
2018-07-01T18:28:30.187Z,16.50
2018-07-01T18:33:19.291Z,16.40
2018-07-01T18:35:48.299Z,16.30
2018-07-01T18:38:18.628Z,16.20
2018-07-01T18:40:47.773Z,16.30
2018-07-01T18:43:16.120Z,16.20
2018-07-01T18:45:44.972Z,16.20
2018-07-01T18:48:13.894Z,16.20
2018-07-01T18:50:42.530Z,16.10
2018-07-01T18:53:11.105Z,16.10
2018-07-01T18:55:39.887Z,16.00
2018-07-01T18:58:08.438Z,16.00
2018-07-01T19:00:37.003Z,15.90
2018-07-01T19:03:07.680Z,15.80
2018-07-01T19:05:37.195Z,15.70
2018-07-01T19:08:06.126Z,15.60
2018-07-01T19:10:35.020Z,15.60
2018-07-01T19:13:03.577Z,15.60
2018-07-01T19:15:32.242Z,15.60
2018-07-01T19:18:01.063Z,15.60
2018-07-01T19:20:29.864Z,15.60
2018-07-01T19:22:58.454Z,15.60
2018-07-01T19:25:27.024Z,15.50
2018-07-01T19:27:55.637Z,15.50
2018-07-01T19:30:24.184Z,15.50
2018-07-01T19:32:53.015Z,15.40
2018-07-01T19:35:21.958Z,15.30
2018-07-01T19:37:51.710Z,15.20
2018-07-01T19:40:20.807Z,15.10
2018-07-01T19:42:49.427Z,15.00
2018-07-01T19:45:18.064Z,14.90
2018-07-01T19:47:46.842Z,14.90
2018-07-01T19:50:15.494Z,14.90
2018-07-01T19:52:44.127Z,14.80
2018-07-01T19:58:36.720Z,14.60
2018-07-01T20:01:05.336Z,14.60
2018-07-01T20:03:33.866Z,14.50
2018-07-01T20:06:02.492Z,14.50
2018-07-01T20:08:31.100Z,14.40
2018-07-01T20:10:59.833Z,14.50
2018-07-01T20:13:28.643Z,14.50
2018-07-01T20:15:57.235Z,14.40
2018-07-01T20:18:25.915Z,14.40
2018-07-01T20:20:54.451Z,14.40
2018-07-01T20:23:22.978Z,14.30
2018-07-01T20:25:51.768Z,14.40
2018-07-01T20:28:20.519Z,14.30
2018-07-01T20:30:49.051Z,14.30
2018-07-01T20:33:17.689Z,14.20
2018-07-01T20:35:46.189Z,14.20
2018-07-01T20:38:14.738Z,14.10
2018-07-01T20:40:43.391Z,14.10
2018-07-01T20:43:11.945Z,14.00
2018-07-01T20:45:40.702Z,14.00
2018-07-01T20:48:09.392Z,14.00
2018-07-01T20:50:37.971Z,14.00
2018-07-01T20:53:06.583Z,14.00
2018-07-01T20:55:35.251Z,13.90
2018-07-01T20:58:03.901Z,13.90
2018-07-01T21:00:32.615Z,13.90
2018-07-01T21:03:01.211Z,14.00
2018-07-01T21:05:29.778Z,13.90
2018-07-01T21:07:58.606Z,13.90
2018-07-01T21:10:27.225Z,13.90
2018-07-01T21:12:55.764Z,13.90
2018-07-01T21:15:24.343Z,13.80
2018-07-01T21:17:53.141Z,13.80
2018-07-01T21:20:21.672Z,13.80
2018-07-01T21:22:50.207Z,13.70
2018-07-01T21:25:19.095Z,13.70
2018-07-01T21:27:47.721Z,13.60
2018-07-01T21:30:16.467Z,13.60
2018-07-01T21:32:45.399Z,13.60
2018-07-01T21:35:14.003Z,13.50
2018-07-01T21:37:43.151Z,13.50
2018-07-01T21:40:11.679Z,13.40
2018-07-01T21:42:40.197Z,13.40
2018-07-01T21:45:09.110Z,13.40
2018-07-01T21:47:38.685Z,13.30
2018-07-01T21:50:07.943Z,13.30
2018-07-01T21:52:36.686Z,13.30
2018-07-01T21:55:05.476Z,13.30
2018-07-01T21:57:34.019Z,13.30
2018-07-01T22:00:02.862Z,13.20
2018-07-01T22:02:31.447Z,13.20
2018-07-01T22:05:00.128Z,13.20
2018-07-01T22:07:28.678Z,13.20
2018-07-01T22:09:57.197Z,13.20
2018-07-01T22:12:36.968Z,13.20
2018-07-01T22:15:21.025Z,13.20
2018-07-01T22:17:49.585Z,13.10
2018-07-01T22:20:18.170Z,13.00
2018-07-01T22:22:46.679Z,12.90
2018-07-01T22:25:15.320Z,12.90
2018-07-01T22:27:44.035Z,12.90
2018-07-01T22:30:12.713Z,12.90
2018-07-01T22:32:41.307Z,12.90
2018-07-01T22:35:09.881Z,12.90
2018-07-01T22:37:38.489Z,12.90
2018-07-01T22:40:07.419Z,12.90
2018-07-01T22:42:35.978Z,13.00
2018-07-01T22:45:04.581Z,12.90
2018-07-01T22:47:33.198Z,12.90
2018-07-01T22:50:01.836Z,12.90
2018-07-01T22:52:30.555Z,12.90
2018-07-01T22:54:59.264Z,12.70
2018-07-01T22:57:27.800Z,12.80
2018-07-01T22:59:56.551Z,12.70
2018-07-01T23:03:09.362Z,12.70
2018-07-01T23:05:38.731Z,12.70
2018-07-01T23:08:07.237Z,12.70
2018-07-01T23:10:35.766Z,12.60
2018-07-01T23:13:04.455Z,12.50
2018-07-01T23:15:32.958Z,12.50
2018-07-01T23:18:01.507Z,12.50
2018-07-01T23:20:29.998Z,12.50
2018-07-01T23:22:58.535Z,12.50
2018-07-01T23:25:27.374Z,12.50
2018-07-01T23:27:55.874Z,12.50
2018-07-01T23:30:24.402Z,12.50
2018-07-01T23:32:52.971Z,12.50
2018-07-01T23:35:21.496Z,12.40
2018-07-01T23:37:49.989Z,12.40
2018-07-01T23:40:18.562Z,12.40
2018-07-01T23:42:47.018Z,12.40
2018-07-01T23:45:16.382Z,12.30
2018-07-01T23:47:45.162Z,12.30
2018-07-01T23:50:13.667Z,12.30
2018-07-01T23:52:42.308Z,12.20
2018-07-01T23:55:11.074Z,12.10
2018-07-01T23:57:39.642Z,12.00
